sensor_id;sensor_type;location;lat;lon;timestamp;pressure;altitude;pressure_sealevel;temperature;humidity
45941;BME280;31858;46.008;8.978;2024-02-04T00:03:07;95144.84;;;14.99;28.52
45941;BME280;31858;46.008;8.978;2024-02-04T00:13:10;95147.53;;;14.89;28.06
45941;BME280;31858;46.008;8.978;2024-02-04T00:23:11;95134.88;;;14.72;28.29
45941;BME280;31858;46.008;8.978;2024-02-04T00:33:14;95130.66;;;14.74;28.35
45941;BME280;31858;46.008;8.978;2024-02-04T00:43:16;95118.41;;;14.66;28.55
45941;BME280;31858;46.008;8.978;2024-02-04T00:53:19;95113.41;;;14.72;27.81
45941;BME280;31858;46.008;8.978;2024-02-04T01:03:20;95117.63;;;14.73;27.64
45941;BME280;31858;46.008;8.978;2024-02-04T01:13:23;95113.41;;;14.82;27.72
45941;BME280;31858;46.008;8.978;2024-02-04T01:23:25;95111.13;;;14.77;27.69
45941;BME280;31858;46.008;8.978;2024-02-04T01:33:28;95113.03;;;14.66;27.71
45941;BME280;31858;46.008;8.978;2024-02-04T01:43:29;95120.31;;;14.69;27.70
45941;BME280;31858;46.008;8.978;2024-02-04T01:53:34;95115.72;;;14.55;27.71
45941;BME280;31858;46.008;8.978;2024-02-04T02:03:38;95121.03;;;14.41;28.35
45941;BME280;31858;46.008;8.978;2024-02-04T02:13:43;95120.63;;;14.21;28.75
45941;BME280;31858;46.008;8.978;2024-02-04T02:23:56;95115.22;;;14.00;28.59
45941;BME280;31858;46.008;8.978;2024-02-04T02:34:02;95100.31;;;14.02;28.02
45941;BME280;31858;46.008;8.978;2024-02-04T02:44:05;95083.81;;;13.97;28.63
45941;BME280;31858;46.008;8.978;2024-02-04T02:54:08;95068.47;;;13.80;28.13
45941;BME280;31858;46.008;8.978;2024-02-04T03:04:10;95063.41;;;13.57;29.04
45941;BME280;31858;46.008;8.978;2024-02-04T03:14:15;95046.13;;;13.40;29.15
45941;BME280;31858;46.008;8.978;2024-02-04T03:24:17;95043.56;;;13.65;28.56
45941;BME280;31858;46.008;8.978;2024-02-04T03:34:20;95046.47;;;13.28;29.96
45941;BME280;31858;46.008;8.978;2024-02-04T03:44:21;95037.56;;;13.10;30.04
45941;BME280;31858;46.008;8.978;2024-02-04T03:54:24;95042.13;;;13.09;29.95
45941;BME280;31858;46.008;8.978;2024-02-04T04:04:26;95042.16;;;13.13;30.46
45941;BME280;31858;46.008;8.978;2024-02-04T04:14:29;95039.44;;;12.98;29.84
45941;BME280;31858;46.008;8.978;2024-02-04T04:24:30;95045.19;;;13.07;29.36
45941;BME280;31858;46.008;8.978;2024-02-04T04:34:33;95062.72;;;13.01;30.53
45941;BME280;31858;46.008;8.978;2024-02-04T04:44:35;95082.81;;;12.74;31.10
45941;BME280;31858;46.008;8.978;2024-02-04T04:54:38;95086.81;;;12.47;31.64
45941;BME280;31858;46.008;8.978;2024-02-04T05:04:42;95095.06;;;12.31;32.32
45941;BME280;31858;46.008;8.978;2024-02-04T05:14:47;95099.50;;;12.16;32.84
45941;BME280;31858;46.008;8.978;2024-02-04T05:24:48;95107.38;;;12.02;32.40
45941;BME280;31858;46.008;8.978;2024-02-04T05:34:51;95111.91;;;11.98;32.32
45941;BME280;31858;46.008;8.978;2024-02-04T05:44:53;95110.94;;;12.13;31.70
45941;BME280;31858;46.008;8.978;2024-02-04T05:54:56;95122.38;;;12.14;31.91
45941;BME280;31858;46.008;8.978;2024-02-04T06:04:57;95123.09;;;12.07;32.33
45941;BME280;31858;46.008;8.978;2024-02-04T06:15:00;95119.19;;;12.01;31.93
45941;BME280;31858;46.008;8.978;2024-02-04T06:25:02;95114.44;;;12.21;32.34
45941;BME280;31858;46.008;8.978;2024-02-04T06:35:06;95127.50;;;11.92;32.15
45941;BME280;31858;46.008;8.978;2024-02-04T06:45:09;95132.34;;;11.83;32.60
45941;BME280;31858;46.008;8.978;2024-02-04T06:55:12;95156.47;;;11.60;33.34
45941;BME280;31858;46.008;8.978;2024-02-04T07:05:13;95155.81;;;11.67;33.83
45941;BME280;31858;46.008;8.978;2024-02-04T07:15:17;95151.94;;;11.94;30.89
45941;BME280;31858;46.008;8.978;2024-02-04T07:25:18;95151.63;;;12.36;31.57
45941;BME280;31858;46.008;8.978;2024-02-04T07:35:21;95162.91;;;12.60;31.63
45941;BME280;31858;46.008;8.978;2024-02-04T07:45:23;95171.22;;;12.92;29.56
45941;BME280;31858;46.008;8.978;2024-02-04T07:55:26;95178.28;;;13.18;30.53
45941;BME280;31858;46.008;8.978;2024-02-04T08:05:27;95190.44;;;13.12;30.71
45941;BME280;31858;46.008;8.978;2024-02-04T08:15:30;95200.06;;;13.16;30.55
45941;BME280;31858;46.008;8.978;2024-02-04T08:25:32;95198.66;;;13.33;29.67
45941;BME280;31858;46.008;8.978;2024-02-04T08:35:35;95209.03;;;13.38;30.08
45941;BME280;31858;46.008;8.978;2024-02-04T08:45:36;95215.97;;;13.46;29.91
45941;BME280;31858;46.008;8.978;2024-02-04T08:55:39;95207.59;;;13.51;30.25
45941;BME280;31858;46.008;8.978;2024-02-04T09:05:41;95210.38;;;13.69;29.25
45941;BME280;31858;46.008;8.978;2024-02-04T09:15:44;95196.31;;;13.90;29.40
45941;BME280;31858;46.008;8.978;2024-02-04T09:25:45;95202.75;;;13.78;29.86
45941;BME280;31858;46.008;8.978;2024-02-04T09:35:48;95211.47;;;13.61;31.85
45941;BME280;31858;46.008;8.978;2024-02-04T09:45:50;95229.78;;;13.55;34.08
45941;BME280;31858;46.008;8.978;2024-02-04T09:55:55;95225.84;;;13.38;35.80
45941;BME280;31858;46.008;8.978;2024-02-04T10:05:57;95223.22;;;13.46;33.39
45941;BME280;31858;46.008;8.978;2024-02-04T10:16:00;95223.28;;;13.53;33.92
45941;BME280;31858;46.008;8.978;2024-02-04T10:26:02;95215.78;;;13.80;31.62
45941;BME280;31858;46.008;8.978;2024-02-04T10:36:06;95225.16;;;14.32;29.88
45941;BME280;31858;46.008;8.978;2024-02-04T10:46:09;95226.88;;;14.93;29.43
45941;BME280;31858;46.008;8.978;2024-02-04T10:56:18;95213.84;;;15.13;32.68
45941;BME280;31858;46.008;8.978;2024-02-04T11:06:22;95197.28;;;15.82;26.40
45941;BME280;31858;46.008;8.978;2024-02-04T11:16:33;95188.09;;;15.73;27.88
45941;BME280;31858;46.008;8.978;2024-02-04T11:26:41;95182.69;;;15.87;28.66
45941;BME280;31858;46.008;8.978;2024-02-04T11:36:45;95166.47;;;16.12;29.01
45941;BME280;31858;46.008;8.978;2024-02-04T11:46:46;95152.25;;;16.11;27.50
45941;BME280;31858;46.008;8.978;2024-02-04T11:56:50;95134.41;;;16.46;29.41
45941;BME280;31858;46.008;8.978;2024-02-04T12:06:53;95131.47;;;16.85;26.93
45941;BME280;31858;46.008;8.978;2024-02-04T12:16:57;95134.41;;;16.98;27.89
45941;BME280;31858;46.008;8.978;2024-02-04T12:26:59;95117.38;;;17.11;28.59
45941;BME280;31858;46.008;8.978;2024-02-04T12:37:02;95111.84;;;17.25;33.49
45941;BME280;31858;46.008;8.978;2024-02-04T12:47:05;95095.63;;;17.33;32.61
45941;BME280;31858;46.008;8.978;2024-02-04T12:57:08;95095.06;;;17.48;30.22
45941;BME280;31858;46.008;8.978;2024-02-04T13:07:13;95094.50;;;17.68;30.64
45941;BME280;31858;46.008;8.978;2024-02-04T13:17:18;95076.59;;;17.84;29.90
45941;BME280;31858;46.008;8.978;2024-02-04T13:27:20;95074.22;;;17.90;30.78
45941;BME280;31858;46.008;8.978;2024-02-04T13:37:22;95074.66;;;18.15;27.18
45941;BME280;31858;46.008;8.978;2024-02-04T13:47:24;95074.16;;;18.20;31.09
45941;BME280;31858;46.008;8.978;2024-02-04T13:57:27;95066.94;;;18.41;30.10
45941;BME280;31858;46.008;8.978;2024-02-04T14:07:29;95072.44;;;18.61;29.45
45941;BME280;31858;46.008;8.978;2024-02-04T14:17:32;95069.69;;;18.64;29.12
45941;BME280;31858;46.008;8.978;2024-02-04T14:27:33;95061.69;;;18.57;29.76
45941;BME280;31858;46.008;8.978;2024-02-04T14:37:38;95068.69;;;18.78;30.10
45941;BME280;31858;46.008;8.978;2024-02-04T14:47:40;95058.50;;;18.66;29.06
45941;BME280;31858;46.008;8.978;2024-02-04T14:57:43;95065.81;;;18.65;30.17
45941;BME280;31858;46.008;8.978;2024-02-04T15:07:44;95062.97;;;18.49;28.40
45941;BME280;31858;46.008;8.978;2024-02-04T15:17:48;95063.91;;;18.12;32.46
45941;BME280;31858;46.008;8.978;2024-02-04T15:27:52;95069.09;;;17.65;31.94
45941;BME280;31858;46.008;8.978;2024-02-04T15:37:55;95066.59;;;17.47;32.24
45941;BME280;31858;46.008;8.978;2024-02-04T15:48:02;95060.41;;;17.16;35.83
45941;BME280;31858;46.008;8.978;2024-02-04T15:58:06;95065.75;;;17.20;38.19
45941;BME280;31858;46.008;8.978;2024-02-04T16:08:09;95073.59;;;17.04;40.50
45941;BME280;31858;46.008;8.978;2024-02-04T16:18:13;95073.88;;;16.75;40.84
45941;BME280;31858;46.008;8.978;2024-02-04T16:28:15;95073.91;;;16.72;33.92
45941;BME280;31858;46.008;8.978;2024-02-04T16:38:18;95082.28;;;16.81;30.62
45941;BME280;31858;46.008;8.978;2024-02-04T16:48:20;95088.38;;;16.88;30.00
45941;BME280;31858;46.008;8.978;2024-02-04T16:58:23;95090.00;;;16.16;33.09
45941;BME280;31858;46.008;8.978;2024-02-04T17:08:25;95097.16;;;15.68;36.52
45941;BME280;31858;46.008;8.978;2024-02-04T17:18:35;95110.34;;;15.09;37.88
45941;BME280;31858;46.008;8.978;2024-02-04T17:28:39;95108.03;;;15.11;35.75
45941;BME280;31858;46.008;8.978;2024-02-04T17:38:42;95111.88;;;15.13;35.15
45941;BME280;31858;46.008;8.978;2024-02-04T17:48:44;95107.66;;;15.12;32.95
45941;BME280;31858;46.008;8.978;2024-02-04T17:58:46;95111.47;;;15.15;31.94
45941;BME280;31858;46.008;8.978;2024-02-04T18:08:49;95108.41;;;15.09;32.35
45941;BME280;31858;46.008;8.978;2024-02-04T18:18:52;95117.25;;;14.95;32.88
45941;BME280;31858;46.008;8.978;2024-02-04T18:28:55;95102.31;;;14.87;32.79
45941;BME280;31858;46.008;8.978;2024-02-04T18:38:58;95111.13;;;14.81;32.69
45941;BME280;31858;46.008;8.978;2024-02-04T18:49:01;95119.94;;;14.78;32.52
45941;BME280;31858;46.008;8.978;2024-02-04T18:59:04;95129.91;;;14.81;32.68
45941;BME280;31858;46.008;8.978;2024-02-04T19:09:05;95115.34;;;14.75;33.04
45941;BME280;31858;46.008;8.978;2024-02-04T19:19:09;95120.31;;;14.58;33.27
45941;BME280;31858;46.008;8.978;2024-02-04T19:29:10;95119.53;;;14.51;33.41
45941;BME280;31858;46.008;8.978;2024-02-04T19:39:13;95122.22;;;14.58;33.28
45941;BME280;31858;46.008;8.978;2024-02-04T19:49:15;95121.06;;;14.48;33.49
45941;BME280;31858;46.008;8.978;2024-02-04T19:59:18;95125.25;;;14.38;33.92
45941;BME280;31858;46.008;8.978;2024-02-04T20:09:20;95131.00;;;14.30;34.46
45941;BME280;31858;46.008;8.978;2024-02-04T20:19:25;95130.59;;;14.35;33.42
45941;BME280;31858;46.008;8.978;2024-02-04T20:29:26;95126.38;;;14.20;34.80
45941;BME280;31858;46.008;8.978;2024-02-04T20:39:29;95124.06;;;14.32;34.19
45941;BME280;31858;46.008;8.978;2024-02-04T20:49:31;95126.38;;;14.30;34.11
45941;BME280;31858;46.008;8.978;2024-02-04T20:59:34;95121.41;;;14.22;33.84
45941;BME280;31858;46.008;8.978;2024-02-04T21:09:35;95121.41;;;14.18;33.85
45941;BME280;31858;46.008;8.978;2024-02-04T21:19:40;95121.00;;;14.16;34.10
45941;BME280;31858;46.008;8.978;2024-02-04T21:29:41;95121.72;;;13.99;34.74
45941;BME280;31858;46.008;8.978;2024-02-04T21:39:44;95124.38;;;13.92;34.71
45941;BME280;31858;46.008;8.978;2024-02-04T21:49:46;95122.41;;;13.75;35.60
45941;BME280;31858;46.008;8.978;2024-02-04T21:59:49;95121.53;;;13.53;36.25
45941;BME280;31858;46.008;8.978;2024-02-04T22:09:51;95127.28;;;13.55;36.26
45941;BME280;31858;46.008;8.978;2024-02-04T22:19:53;95139.13;;;13.54;36.75
45941;BME280;31858;46.008;8.978;2024-02-04T22:29:55;95131.44;;;13.45;36.42
45941;BME280;31858;46.008;8.978;2024-02-04T22:39:58;95132.94;;;13.43;36.97
45941;BME280;31858;46.008;8.978;2024-02-04T22:50:00;95127.91;;;13.27;36.71
45941;BME280;31858;46.008;8.978;2024-02-04T23:00:04;95135.56;;;13.28;36.53
45941;BME280;31858;46.008;8.978;2024-02-04T23:10:12;95140.09;;;13.24;35.95
45941;BME280;31858;46.008;8.978;2024-02-04T23:20:15;95148.03;;;13.14;36.59
45941;BME280;31858;46.008;8.978;2024-02-04T23:30:17;95151.72;;;12.91;37.24
45941;BME280;31858;46.008;8.978;2024-02-04T23:40:20;95147.84;;;12.85;36.71
45941;BME280;31858;46.008;8.978;2024-02-04T23:50:22;95147.09;;;12.85;36.72
